Pagrindinis puslapis
METAR-TAF:

METAR-TAF

Oro uostai :

Enontekiö, Suomija

platuma: 68-21-52N, ilguma: 023-25-39E, Aukštis: 308 m

Dabartinis oras

Ataskaita buvo paskelbta 26 minutes, ne 12:50 UTC
Vėjas 14 kt iš Šiaurės/Šiaurės Rytų
Temperatūra -6°C
Drėgmė 68%
Slėgis 1020 hPa
Matomumas 10 km arba daugiau
Mažai debesys ne aukštis 2600 ft

METAR: EFET 201250Z AUTO 03014KT 9999 FEW026 M06/M11 Q1020

Laikas: 16:16 (13:16 UTC)


TAF: trūkstamas

Orai ataskaitas ir orų prognozės (METAR, TAF).

turimą stotys yra geltonos ir raudonos taškus žemėlapyje.

Perkelti pele per norėdami pamatyti stoties vardą.

Tada spustelėkite, norėdami matyti oro stebėjimo ir prognozės.

Norėdami pakeisti žemėlapį: spustelėkite ant žalios mygtukų su juodo kryžiaus žemyn,; žalią mygtuką su brūkšneliu, jei norite nutolinti; arba žalių rodyklių gretimoms žemėlapius.


METAR-TAF: